Time;durP1;ratioP1;P1;durP2;ratioP2;P2;SDS_P1;SDS_P2;PMS_P1;PMS_P2;Temp;Humidity;BMP_temperature;BMP_pressure;BME280_temperature;BME280_humidity;BME280_pressure;Samples;Min_cycle;Max_cycle;Signal;HPM_P1;HPM_P2
2022/01/04 05:27:06;;;;;;;7.50;4.20;;;9.00;99.90;;;;;;4969465;23;20142;-89
2022/01/04 05:29:31;;;;;;;5.60;3.67;;;8.90;99.90;;;;;;4954693;29;20058;-90
2022/01/04 05:31:57;;;;;;;9.60;4.00;;;8.90;99.90;;;;;;4939390;29;20031;-90
2022/01/04 05:34:25;;;;;;;6.33;3.90;;;8.90;99.90;;;;;;4938117;29;20035;-90
2022/01/04 05:36:51;;;;;;;5.87;3.80;;;9.00;99.90;;;;;;4939277;29;20114;-90
2022/01/04 05:39:18;;;;;;;6.20;3.90;;;8.90;99.90;;;;;;4954748;29;20081;-90
2022/01/04 05:41:44;;;;;;;5.67;3.90;;;8.90;99.90;;;;;;4954985;28;20035;-89
2022/01/04 05:44:10;;;;;;;10.37;4.20;;;8.90;99.90;;;;;;4954896;28;20046;-89
2022/01/04 05:46:39;;;;;;;5.70;3.90;;;8.90;99.90;;;;;;4954852;29;20031;-89
2022/01/04 05:49:05;;;;;;;10.70;5.40;;;8.90;99.90;;;;;;4954857;28;20035;-89
2022/01/04 05:51:30;;;;;;;7.37;4.87;;;8.90;99.90;;;;;;4954799;28;20405;-89
2022/01/04 05:53:56;;;;;;;10.10;5.53;;;8.90;99.90;;;;;;4955333;28;20482;-90
2022/01/04 05:56:22;;;;;;;8.23;5.00;;;8.90;99.90;;;;;;4954897;29;20031;-90
2022/01/04 05:58:47;;;;;;;8.80;5.23;;;8.90;99.90;;;;;;4954373;28;20042;-89
2022/01/04 06:01:13;;;;;;;9.23;5.33;;;9.00;99.90;;;;;;4954663;28;20035;-90
2022/01/04 06:03:39;;;;;;;7.80;5.07;;;8.90;99.90;;;;;;4954581;28;20035;-89
2022/01/04 06:06:05;;;;;;;8.10;4.53;;;8.90;99.90;;;;;;4954538;28;20078;-89
2022/01/04 06:08:35;;;;;;;7.80;4.53;;;8.90;99.90;;;;;;4954174;28;20058;-89
2022/01/04 06:11:01;;;;;;;6.90;4.00;;;8.90;99.90;;;;;;4954316;29;20035;-89
2022/01/04 06:16:12;;;;;;;6.20;4.33;;;8.90;99.90;;;;;;4954532;29;20062;-89
2022/01/04 06:18:41;;;;;;;9.43;5.10;;;8.90;99.90;;;;;;4953939;28;20035;-89
2022/01/04 06:21:07;;;;;;;7.95;5.00;;;8.90;99.90;;;;;;4954254;28;20030;-89
2022/01/04 06:23:33;;;;;;;8.03;4.90;;;8.90;99.90;;;;;;4954322;28;20161;-89
2022/01/04 06:25:59;;;;;;;8.43;4.60;;;8.90;99.90;;;;;;4953949;28;20127;-90
2022/01/04 06:28:25;;;;;;;6.63;4.77;;;8.90;99.90;;;;;;4937966;29;20070;-90
2022/01/04 06:30:51;;;;;;;8.20;4.80;;;8.90;99.90;;;;;;4937959;29;20065;-90
2022/01/04 06:33:21;;;;;;;7.43;4.23;;;8.90;99.90;;;;;;4954218;28;20035;-91
2022/01/04 06:35:49;;;;;;;7.00;3.83;;;8.90;99.90;;;;;;4955081;28;20042;-89
2022/01/04 06:38:15;;;;;;;5.80;3.97;;;8.90;99.90;;;;;;4937625;29;20027;-90
2022/01/04 06:40:41;;;;;;;8.20;4.30;;;8.90;99.90;;;;;;4953832;28;20039;-90
2022/01/04 06:43:07;;;;;;;8.40;5.23;;;8.90;99.90;;;;;;4953998;29;20033;-91
2022/01/04 06:45:33;;;;;;;9.77;4.80;;;8.90;99.90;;;;;;4953755;28;20125;-91
2022/01/04 06:47:59;;;;;;;10.93;5.70;;;8.90;99.90;;;;;;4937565;29;20031;-89
2022/01/04 06:50:25;;;;;;;8.03;4.83;;;8.90;99.90;;;;;;4954324;29;20470;-89
2022/01/04 06:52:52;;;;;;;8.83;4.60;;;8.90;99.90;;;;;;4953476;28;20034;-90
2022/01/04 06:55:17;;;;;;;12.60;5.33;;;8.90;99.90;;;;;;4953924;28;20027;-89
2022/01/04 06:57:44;;;;;;;10.73;5.70;;;8.80;99.90;;;;;;4937249;29;20015;-90
2022/01/04 07:00:10;;;;;;;8.47;5.30;;;8.90;99.90;;;;;;4953515;28;20122;-89
2022/01/04 07:02:36;;;;;;;9.63;5.43;;;8.90;99.90;;;;;;4953525;28;20027;-89
2022/01/04 07:05:03;;;;;;;10.73;5.60;;;8.90;99.90;;;;;;4953706;29;20042;-90
2022/01/04 07:07:28;;;;;;;9.10;5.47;;;8.90;99.90;;;;;;4952959;28;20035;-89
2022/01/04 07:09:54;;;;;;;8.43;5.00;;;8.90;99.90;;;;;;4937520;29;20379;-89
2022/01/04 07:12:20;;;;;;;9.20;5.87;;;8.80;99.90;;;;;;4953340;28;20031;-89
2022/01/04 07:14:48;;;;;;;9.40;5.80;;;8.90;99.90;;;;;;4953420;28;20031;-90
2022/01/04 07:17:14;;;;;;;10.27;5.57;;;8.90;99.90;;;;;;4953364;29;20379;-90
2022/01/04 07:19:39;;;;;;;13.17;6.47;;;8.90;99.90;;;;;;4954022;28;20031;-89
2022/01/04 07:22:05;;;;;;;10.03;6.57;;;8.90;99.90;;;;;;4953160;29;20078;-89
2022/01/04 07:24:31;;;;;;;11.07;6.70;;;8.80;99.90;;;;;;4953402;28;20027;-89
2022/01/04 07:26:57;;;;;;;11.40;6.40;;;8.80;99.90;;;;;;4953383;28;20039;-89
2022/01/04 07:29:22;;;;;;;11.87;6.90;;;8.90;99.90;;;;;;4937222;29;20035;-89
2022/01/04 07:31:48;;;;;;;12.43;6.53;;;8.80;99.90;;;;;;4952851;28;20063;-89
2022/01/04 07:34:14;;;;;;;9.30;6.37;;;8.80;99.90;;;;;;4921334;29;20082;-89
2022/01/04 07:36:40;;;;;;;12.83;6.30;;;8.90;99.90;;;;;;4952925;28;20039;-90
2022/01/04 07:39:06;;;;;;;10.50;5.93;;;8.80;99.90;;;;;;4953430;28;20031;-90
2022/01/04 07:41:33;;;;;;;11.57;6.80;;;8.90;99.90;;;;;;4952722;29;20474;-90
2022/01/04 07:43:59;;;;;;;9.97;6.27;;;8.90;99.90;;;;;;4953057;29;20094;-89
2022/01/04 07:46:25;;;;;;;10.80;6.63;;;8.90;99.90;;;;;;4953024;29;20039;-89
2022/01/04 07:48:52;;;;;;;10.50;6.67;;;8.90;99.90;;;;;;4952525;29;20031;-89
2022/01/04 07:51:18;;;;;;;11.90;7.00;;;8.80;99.90;;;;;;4953183;28;20568;-89
2022/01/04 07:53:43;;;;;;;11.33;6.87;;;8.80;99.90;;;;;;4952958;29;20023;-89
2022/01/04 07:56:09;;;;;;;13.63;7.97;;;8.80;99.90;;;;;;4952644;28;20087;-90
2022/01/04 07:58:35;;;;;;;12.73;7.73;;;8.80;99.90;;;;;;4951913;29;20386;-89
2022/01/04 08:01:01;;;;;;;12.47;7.13;;;8.80;99.90;;;;;;4952523;29;20046;-90
2022/01/04 08:03:26;;;;;;;11.03;6.73;;;8.80;99.90;;;;;;4953598;28;20035;-90
2022/01/04 08:05:52;;;;;;;9.97;6.27;;;8.80;99.90;;;;;;4952407;29;20043;-90
2022/01/04 08:08:18;;;;;;;11.17;6.70;;;8.90;99.90;;;;;;4952337;29;20066;-90
2022/01/04 08:10:46;;;;;;;10.20;6.80;;;8.80;99.90;;;;;;4952608;29;20035;-91
2022/01/04 08:13:12;;;;;;;12.07;7.20;;;8.80;99.90;;;;;;4952735;29;20062;-90
2022/01/04 08:15:38;;;;;;;11.33;6.97;;;8.80;99.90;;;;;;4953774;28;20034;-89
2022/01/04 08:18:04;;;;;;;12.97;6.93;;;8.80;99.90;;;;;;4953400;28;20035;-91
2022/01/04 08:20:30;;;;;;;10.43;6.40;;;8.80;99.90;;;;;;4936454;29;20035;-91
2022/01/04 08:22:56;;;;;;;10.70;6.50;;;8.80;99.90;;;;;;4952680;29;20036;-91
2022/01/04 08:25:21;;;;;;;14.97;7.40;;;8.90;99.90;;;;;;4952690;28;20064;-90
2022/01/04 08:27:47;;;;;;;13.40;6.93;;;8.70;99.90;;;;;;4952060;29;20046;-90
2022/01/04 08:30:14;;;;;;;10.90;6.53;;;8.80;99.90;;;;;;4952487;29;20035;-91
2022/01/04 08:32:41;;;;;;;11.07;7.03;;;8.70;99.90;;;;;;4952294;29;20032;-91
2022/01/04 08:35:08;;;;;;;12.50;7.40;;;8.80;99.90;;;;;;4953567;29;20230;-91
2022/01/04 08:37:34;;;;;;;12.90;7.80;;;8.80;99.90;;;;;;4952191;29;20031;-90
2022/01/04 08:39:59;;;;;;;13.93;7.57;;;8.70;99.90;;;;;;4952671;28;20031;-91
2022/01/04 08:42:25;;;;;;;12.90;7.70;;;8.70;99.90;;;;;;4952330;28;20066;-91
2022/01/04 08:44:53;;;;;;;12.47;8.03;;;8.80;99.90;;;;;;4936495;29;20039;-90
2022/01/04 08:47:19;;;;;;;13.67;7.27;;;8.80;99.90;;;;;;4952325;29;20035;-90
2022/01/04 08:49:44;;;;;;;15.47;8.13;;;8.80;99.90;;;;;;4951644;28;20093;-91
2022/01/04 08:52:10;;;;;;;13.40;7.90;;;8.70;99.90;;;;;;4952262;28;20453;-91
2022/01/04 08:54:36;;;;;;;12.33;7.30;;;8.70;99.90;;;;;;4952546;28;20023;-91
2022/01/04 08:57:03;;;;;;;11.00;7.10;;;8.80;99.90;;;;;;4952298;29;20390;-90
2022/01/04 08:59:29;;;;;;;14.37;7.40;;;8.80;99.90;;;;;;4936068;29;20478;-91
2022/01/04 09:01:56;;;;;;;12.60;7.30;;;8.80;99.90;;;;;;4952099;28;20042;-91
2022/01/04 09:04:21;;;;;;;14.13;7.00;;;8.80;99.90;;;;;;4953504;29;20204;-92
2022/01/04 09:06:48;;;;;;;13.83;8.27;;;8.80;99.90;;;;;;4952121;29;20165;-91
2022/01/04 09:09:14;;;;;;;14.63;7.50;;;8.80;99.90;;;;;;4953729;28;20027;-91
2022/01/04 09:11:40;;;;;;;13.27;7.40;;;8.80;99.90;;;;;;4955472;29;20521;-91
2022/01/04 09:14:40;;;;;;;13.60;6.83;;;8.80;99.90;;;;;;4939619;29;20035;-90
2022/01/04 09:19:38;;;;;;;13.57;7.60;;;8.80;99.90;;;;;;4954916;29;20035;-91
2022/01/04 09:22:04;;;;;;;14.60;7.87;;;8.80;99.90;;;;;;4955425;29;20397;-90
2022/01/04 09:24:30;;;;;;;14.47;7.97;;;8.80;99.90;;;;;;4955511;28;20030;-91
2022/01/04 09:26:57;;;;;;;14.17;7.50;;;8.80;99.90;;;;;;4955246;29;20458;-90
2022/01/04 09:29:23;;;;;;;13.90;8.07;;;8.80;99.90;;;;;;4955028;29;20053;-90
2022/01/04 09:31:50;;;;;;;13.00;7.87;;;8.80;99.90;;;;;;4954948;28;20486;-90
2022/01/04 09:34:17;;;;;;;13.90;7.77;;;8.90;99.90;;;;;;4939492;29;20438;-91
2022/01/04 09:36:43;;;;;;;11.97;7.47;;;8.80;99.90;;;;;;4955123;28;20036;-90
2022/01/04 09:39:22;;;;;;;12.13;7.10;;;8.90;99.90;;;;;;4954679;28;20058;-91
2022/01/04 09:41:49;;;;;;;12.20;7.40;;;8.90;99.90;;;;;;4954936;29;20039;-91
2022/01/04 09:44:15;;;;;;;12.90;7.57;;;8.90;99.90;;;;;;4955076;28;20050;-90
2022/01/04 09:46:42;;;;;;;11.37;6.93;;;8.90;99.90;;;;;;4955118;29;20493;-91
2022/01/04 09:49:09;;;;;;;12.10;7.07;;;8.90;99.90;;;;;;4954468;28;20035;-90
2022/01/04 09:51:37;;;;;;;12.67;7.60;;;8.90;99.90;;;;;;4938630;29;20031;-90
2022/01/04 09:54:03;;;;;;;10.80;6.57;;;8.90;99.90;;;;;;4954740;29;20031;-90
2022/01/04 09:56:29;;;;;;;11.13;6.93;;;8.90;99.90;;;;;;4954913;28;20090;-90
2022/01/04 09:58:55;;;;;;;11.60;7.07;;;8.90;99.90;;;;;;4954306;28;20035;-91
2022/01/04 10:01:23;;;;;;;13.20;6.83;;;9.00;99.90;;;;;;4938646;29;20046;-91
2022/01/04 10:03:49;;;;;;;12.03;6.23;;;8.90;99.90;;;;;;4954665;28;20394;-91
2022/01/04 10:06:15;;;;;;;13.77;6.13;;;9.00;99.90;;;;;;4954616;28;20159;-91
2022/01/04 10:09:00;;;;;;;10.60;6.80;;;9.00;99.90;;;;;;4954061;29;20118;-91
2022/01/04 10:11:50;;;;;;;11.23;6.43;;;8.90;99.90;;;;;;4954253;29;20039;-90
2022/01/04 10:14:23;;;;;;;11.87;6.13;;;9.00;99.90;;;;;;4954597;29;20034;-91
2022/01/04 10:16:51;;;;;;;10.50;6.70;;;9.00;99.90;;;;;;4954431;29;20066;-91
2022/01/04 10:19:30;;;;;;;11.53;6.53;;;8.90;99.90;;;;;;4953836;28;20074;-91
2022/01/04 10:22:14;;;;;;;13.27;6.67;;;8.90;99.90;;;;;;4954641;29;20039;-91
2022/01/04 10:24:41;;;;;;;11.97;5.77;;;9.00;99.90;;;;;;4954336;29;20031;-90
2022/01/04 10:27:23;;;;;;;11.57;6.77;;;8.90;99.90;;;;;;4953994;28;20170;-91
2022/01/04 10:30:07;;;;;;;10.10;5.53;;;9.00;99.90;;;;;;4954087;28;20130;-91
2022/01/04 10:32:52;;;;;;;8.90;5.37;;;9.00;99.90;;;;;;4955248;29;20028;-90
2022/01/04 10:35:28;;;;;;;10.50;5.70;;;9.00;99.90;;;;;;4954135;29;20042;-91
2022/01/04 10:37:56;;;;;;;12.97;6.00;;;8.90;99.90;;;;;;4953547;29;20036;-91
2022/01/04 10:40:23;;;;;;;11.77;6.23;;;9.00;99.90;;;;;;4953979;28;20027;-91
2022/01/04 10:42:48;;;;;;;11.67;6.57;;;8.90;99.90;;;;;;4953870;28;20058;-91
2022/01/04 10:45:32;;;;;;;9.57;6.37;;;9.00;99.90;;;;;;4954041;28;20524;-91
2022/01/04 10:48:29;;;;;;;11.10;6.37;;;9.00;99.90;;;;;;4953319;29;20070;-92
2022/01/04 10:51:09;;;;;;;11.73;6.93;;;9.00;99.90;;;;;;4937137;29;20449;-91
2022/01/04 10:53:38;;;;;;;;;;;8.90;99.90;;;;;;4954318;29;20031;-89
2022/01/04 10:56:07;;;;;;;12.90;7.28;;;9.00;99.90;;;;;;4937715;29;19917;-91
2022/01/04 10:58:34;;;;;;;14.55;7.80;;;9.00;99.90;;;;;;4953220;28;20039;-91
2022/01/04 11:01:07;;;;;;;11.67;7.03;;;9.00;99.90;;;;;;4953361;29;20031;-91
2022/01/04 11:03:36;;;;;;;15.60;8.20;;;9.00;99.90;;;;;;4954460;29;20098;-91
2022/01/04 11:06:10;;;;;;;14.17;7.60;;;9.00;99.90;;;;;;4953415;29;20122;-91
2022/01/04 11:08:37;;;;;;;11.53;6.97;;;9.00;99.90;;;;;;4953208;29;20118;-90
2022/01/04 11:11:02;;;;;;;15.03;8.43;;;9.10;99.90;;;;;;4953296;29;20031;-91
2022/01/04 11:13:29;;;;;;;13.60;8.20;;;9.00;99.90;;;;;;4953400;28;20101;-91
2022/01/04 11:15:55;;;;;;;14.47;8.53;;;9.10;99.90;;;;;;4937397;29;20031;-91
2022/01/04 11:18:21;;;;;;;14.37;9.03;;;9.10;99.90;;;;;;4952800;28;20050;-91
2022/01/04 11:20:48;;;;;;;11.77;7.60;;;9.10;99.90;;;;;;4953469;29;20467;-90
2022/01/04 11:23:15;;;;;;;12.73;8.50;;;9.10;99.90;;;;;;4953264;28;20043;-91
2022/01/04 11:25:43;;;;;;;14.17;9.37;;;9.00;99.90;;;;;;4977250;23;20043;-90
2022/01/04 11:28:12;;;;;;;14.47;9.27;;;9.10;99.90;;;;;;4937261;29;20467;-89
2022/01/04 11:30:59;;;;;;;17.45;10.05;;;9.10;99.90;;;;;;4937409;29;20146;-89
2022/01/04 11:33:43;;;;;;;16.90;9.50;;;9.10;99.90;;;;;;4936815;29;20038;-90
2022/01/04 11:36:12;;;;;;;16.07;9.40;;;9.10;99.90;;;;;;4934152;29;20028;-90
2022/01/04 11:38:38;;;;;;;15.40;8.30;;;9.10;99.90;;;;;;4951437;29;20031;-89
2022/01/04 11:41:05;;;;;;;14.17;8.30;;;9.10;99.90;;;;;;4941093;29;20142;-90
2022/01/04 11:43:32;;;;;;;16.63;8.57;;;9.10;99.90;;;;;;4937902;29;20050;-89
2022/01/04 11:45:59;;;;;;;14.83;8.77;;;9.10;99.90;;;;;;4944014;29;20036;-89
2022/01/04 11:48:40;;;;;;;15.60;8.20;;;9.10;99.90;;;;;;4945989;29;20031;-89
2022/01/04 11:51:08;;;;;;;15.27;8.40;;;9.10;99.90;;;;;;4942129;29;20055;-89
2022/01/04 11:53:36;;;;;;;13.93;9.20;;;9.20;99.90;;;;;;4950131;29;20087;-90
2022/01/04 11:56:05;;;;;;;15.90;9.47;;;9.20;99.90;;;;;;4945413;29;20102;-90
2022/01/04 11:58:44;;;;;;;17.13;9.60;;;9.20;99.90;;;;;;4930157;29;20026;-90
2022/01/04 12:01:13;;;;;;;16.20;10.10;;;9.20;99.90;;;;;;4943535;29;20036;-90
2022/01/04 12:03:48;;;;;;;17.23;9.70;;;9.20;99.90;;;;;;4923329;29;20314;-90
2022/01/04 12:06:16;;;;;;;21.37;10.77;;;9.20;99.90;;;;;;4944150;29;20569;-90
2022/01/04 12:08:53;;;;;;;22.83;12.27;;;9.20;99.90;;;;;;4951661;29;20040;-89
2022/01/04 12:11:26;;;;;;;22.00;12.57;;;9.20;99.90;;;;;;4949643;29;20035;-89
2022/01/04 12:14:22;;;;;;;22.07;13.10;;;9.20;99.90;;;;;;4948845;29;20096;-89
2022/01/04 12:17:04;;;;;;;21.97;11.47;;;9.20;99.90;;;;;;4931917;29;20027;-90
2022/01/04 12:19:50;;;;;;;22.07;10.93;;;9.20;99.90;;;;;;4932159;29;20059;-90
2022/01/04 12:22:38;;;;;;;19.67;11.33;;;9.20;99.90;;;;;;4947684;29;20032;-90
2022/01/04 12:25:08;;;;;;;22.52;12.30;;;9.20;99.90;;;;;;4916406;29;20079;-90
2022/01/04 12:27:34;;;;;;;20.47;11.87;;;9.20;99.90;;;;;;4947036;29;20391;-90
2022/01/04 12:30:26;;;;;;;21.60;11.80;;;9.20;99.90;;;;;;4946695;29;20108;-90
2022/01/04 12:33:09;;;;;;;21.90;12.00;;;9.10;99.90;;;;;;4948387;29;20039;-90
2022/01/04 12:36:01;;;;;;;18.23;11.27;;;9.10;99.90;;;;;;4943857;29;20028;-90
2022/01/04 12:38:28;;;;;;;22.13;11.97;;;9.10;99.90;;;;;;4902765;29;20099;-90
2022/01/04 12:40:54;;;;;;;23.60;10.63;;;9.10;99.90;;;;;;4950025;29;20063;-90
2022/01/04 12:43:20;;;;;;;22.33;10.63;;;9.00;99.90;;;;;;4930006;29;20031;-90
2022/01/04 12:46:00;;;;;;;21.63;10.37;;;9.10;99.90;;;;;;4948903;29;20040;-90
2022/01/04 12:48:45;;;;;;;18.30;10.70;;;9.10;99.90;;;;;;4947952;29;20478;-90
2022/01/04 12:51:28;;;;;;;22.90;10.97;;;9.10;99.90;;;;;;4932374;29;20047;-90
2022/01/04 12:53:59;;;;;;;20.27;11.07;;;9.10;99.90;;;;;;4946093;29;20039;-90
2022/01/04 12:56:26;;;;;;;18.50;10.53;;;9.00;99.90;;;;;;4942315;29;20031;-90
2022/01/04 12:58:53;;;;;;;19.33;10.87;;;9.10;99.90;;;;;;4949758;29;20474;-90
2022/01/04 13:01:27;;;;;;;22.27;10.90;;;9.10;99.90;;;;;;4949300;29;20426;-90
2022/01/04 13:03:54;;;;;;;23.17;11.67;;;9.10;99.90;;;;;;4933782;29;20059;-90
2022/01/04 13:06:21;;;;;;;24.83;11.20;;;9.10;99.90;;;;;;4950166;29;20099;-90
2022/01/04 13:08:54;;;;;;;19.20;11.27;;;9.10;99.90;;;;;;4933607;29;20051;-90
2022/01/04 13:11:20;;;;;;;23.70;10.90;;;9.10;99.90;;;;;;4949614;29;20067;-89
2022/01/04 13:14:01;;;;;;;21.63;11.40;;;9.10;99.90;;;;;;4941808;29;20478;-89
2022/01/04 13:16:34;;;;;;;17.67;10.43;;;9.10;99.90;;;;;;4947579;29;20051;-90
2022/01/04 13:19:14;;;;;;;24.13;11.77;;;9.10;99.90;;;;;;4950236;29;20038;-90
2022/01/04 13:21:41;;;;;;;21.23;10.67;;;9.10;99.90;;;;;;4950055;29;20036;-90
2022/01/04 13:24:08;;;;;;;19.10;11.50;;;9.10;99.90;;;;;;4937741;29;20036;-90
2022/01/04 13:26:34;;;;;;;20.37;11.13;;;9.20;99.90;;;;;;4936589;29;20062;-90
2022/01/04 13:29:00;;;;;;;18.70;10.13;;;9.10;99.90;;;;;;4936338;29;20023;-90
2022/01/04 13:31:27;;;;;;;24.20;12.20;;;9.20;99.90;;;;;;4937195;29;20067;-90
2022/01/04 13:33:54;;;;;;;19.43;11.20;;;9.10;99.90;;;;;;4936783;29;20031;-90
2022/01/04 13:36:24;;;;;;;23.07;11.53;;;9.10;99.90;;;;;;4936403;29;20122;-90
2022/01/04 13:38:55;;;;;;;20.60;9.40;;;9.20;99.90;;;;;;4936017;29;20534;-90
2022/01/04 13:41:34;;;;;;;19.47;9.93;;;9.10;99.90;;;;;;4936011;29;20031;-89
2022/01/04 13:44:06;;;;;;;21.42;9.07;;;9.10;99.90;;;;;;4936370;29;20087;-89
2022/01/04 13:46:34;;;;;;;19.17;10.20;;;9.00;99.90;;;;;;4936231;29;20414;-89
2022/01/04 13:49:00;;;;;;;10.50;5.47;;;9.00;99.90;;;;;;4936166;29;20035;-89
2022/01/04 13:51:34;;;;;;;9.90;4.73;;;8.80;99.90;;;;;;4936050;29;20032;-89
2022/01/04 13:54:09;;;;;;;6.17;3.10;;;8.70;99.90;;;;;;4936449;29;20038;-89
2022/01/04 13:56:35;;;;;;;2.93;1.80;;;8.60;99.90;;;;;;4936367;29;20127;-90
2022/01/04 13:59:01;;;;;;;4.27;1.70;;;8.50;99.90;;;;;;4936741;29;20071;-90
2022/01/04 14:01:35;;;;;;;3.17;1.53;;;8.40;99.90;;;;;;4937708;29;20035;-89
2022/01/04 14:04:13;;;;;;;3.37;1.40;;;8.30;99.90;;;;;;4938694;29;20079;-90
2022/01/04 14:06:52;;;;;;;3.30;1.50;;;8.20;99.90;;;;;;4937204;29;20036;-89
2022/01/04 14:09:23;;;;;;;;;;;8.20;99.90;;;;;;4937267;29;20099;-89
2022/01/04 14:12:07;;;;;;;5.03;1.70;;;8.20;99.90;;;;;;4936379;29;20095;-89
2022/01/04 14:14:51;;;;;;;4.13;1.80;;;8.20;99.90;;;;;;4936416;29;20020;-89
2022/01/04 14:17:26;;;;;;;4.53;2.50;;;8.10;99.90;;;;;;4936350;29;20031;-88
2022/01/04 14:20:01;;;;;;;5.30;2.37;;;8.10;99.90;;;;;;4936371;29;20060;-89
2022/01/04 14:22:30;;;;;;;8.37;3.13;;;8.20;99.90;;;;;;4936441;29;20028;-90
2022/01/04 14:25:06;;;;;;;6.57;2.50;;;8.10;99.90;;;;;;4938074;29;20024;-89
2022/01/04 14:27:44;;;;;;;7.10;3.43;;;8.20;99.90;;;;;;4936789;29;20039;-89
2022/01/04 14:30:13;;;;;;;12.07;4.53;;;8.20;99.90;;;;;;4938535;29;20063;-89
2022/01/04 14:32:47;;;;;;;10.32;4.47;;;8.20;99.90;;;;;;4935976;29;20110;-90
2022/01/04 14:35:27;;;;;;;12.70;5.20;;;8.20;99.90;;;;;;4935766;29;20114;-90
2022/01/04 14:37:58;;;;;;;10.33;5.70;;;8.20;99.90;;;;;;4935759;29;20561;-90
2022/01/04 14:40:28;;;;;;;8.30;4.40;;;8.30;99.90;;;;;;4919791;29;20055;-90
2022/01/04 14:42:55;;;;;;;12.97;5.30;;;8.30;99.90;;;;;;4935329;29;20036;-90
2022/01/04 14:45:21;;;;;;;9.40;4.73;;;8.30;99.90;;;;;;4920229;29;20071;-89
2022/01/04 14:47:48;;;;;;;8.80;4.67;;;8.40;99.90;;;;;;4935280;29;20031;-89
2022/01/04 14:50:16;;;;;;;8.97;4.40;;;8.30;99.90;;;;;;4935209;29;20042;-89
2022/01/04 14:52:41;;;;;;;8.43;4.50;;;8.50;99.90;;;;;;4919207;29;20513;-89
2022/01/04 14:55:08;;;;;;;9.17;4.60;;;8.40;99.90;;;;;;4935369;29;20059;-88
2022/01/04 14:57:34;;;;;;;8.67;4.83;;;8.40;99.90;;;;;;4934974;29;20066;-90
2022/01/04 15:00:03;;;;;;;9.07;4.97;;;8.40;99.90;;;;;;4935507;29;20297;-90
2022/01/04 15:02:28;;;;;;;9.63;4.07;;;8.40;99.90;;;;;;4935588;29;20038;-90
2022/01/04 15:04:56;;;;;;;9.53;4.47;;;8.50;99.90;;;;;;4937915;29;20036;-89
2022/01/04 15:07:24;;;;;;;7.83;4.47;;;8.40;99.90;;;;;;4923948;29;20028;-89
2022/01/04 15:09:50;;;;;;;8.57;4.90;;;8.40;99.90;;;;;;4938495;29;20031;-90
2022/01/04 15:12:16;;;;;;;9.07;4.87;;;8.40;99.90;;;;;;4938823;29;20074;-90
2022/01/04 15:14:42;;;;;;;9.73;4.90;;;8.40;99.90;;;;;;4937412;29;20493;-90
2022/01/04 15:17:12;;;;;;;7.73;4.07;;;8.40;99.90;;;;;;4937752;29;20028;-90
2022/01/04 15:19:38;;;;;;;9.53;4.00;;;8.40;99.90;;;;;;4938742;29;20035;-90
2022/01/04 15:22:04;;;;;;;6.73;4.03;;;8.50;99.90;;;;;;4939691;29;20027;-89
2022/01/04 15:24:30;;;;;;;6.93;4.40;;;8.40;99.90;;;;;;4940775;29;20487;-88
2022/01/04 15:26:56;;;;;;;7.80;4.33;;;8.50;99.90;;;;;;4922625;29;20099;-89
2022/01/04 15:29:22;;;;;;;8.07;4.70;;;8.50;99.90;;;;;;4938431;29;20035;-90
2022/01/04 15:31:48;;;;;;;10.53;4.83;;;8.50;99.90;;;;;;4937702;29;20388;-90
2022/01/04 15:34:14;;;;;;;10.07;5.17;;;8.40;99.90;;;;;;4920374;29;20102;-89
2022/01/04 15:36:40;;;;;;;9.80;5.23;;;8.40;99.90;;;;;;4943381;29;20095;-88
2022/01/04 15:39:23;;;;;;;10.57;5.00;;;8.40;99.90;;;;;;4928123;29;20043;-89
2022/01/04 15:41:50;;;;;;;10.20;5.27;;;8.40;99.90;;;;;;4936561;29;20055;-89
2022/01/04 15:44:18;;;;;;;12.27;5.18;;;8.40;99.90;;;;;;4934242;29;20028;-89
2022/01/04 15:46:45;;;;;;;9.53;5.13;;;8.40;99.90;;;;;;4934178;29;20043;-89
2022/01/04 15:49:11;;;;;;;10.93;5.43;;;8.50;99.90;;;;;;4935689;29;20414;-90
2022/01/04 15:51:37;;;;;;;8.47;4.67;;;8.40;99.90;;;;;;4934219;29;20525;-89
2022/01/04 15:54:04;;;;;;;13.20;6.47;;;8.40;99.90;;;;;;4934104;29;20028;-90
2022/01/04 15:56:33;;;;;;;11.03;5.60;;;8.50;99.90;;;;;;4935188;29;20067;-90
2022/01/04 15:58:59;;;;;;;10.40;5.70;;;8.50;99.90;;;;;;4935023;29;20023;-89
2022/01/04 16:01:25;;;;;;;12.30;5.90;;;8.40;99.90;;;;;;4934313;29;20578;-90
2022/01/04 16:03:51;;;;;;;16.10;7.40;;;8.50;99.90;;;;;;4934316;29;20039;-90
2022/01/04 16:06:17;;;;;;;14.07;6.87;;;8.50;99.90;;;;;;4918743;29;20114;-90
2022/01/04 16:08:44;;;;;;;13.33;6.80;;;8.50;99.90;;;;;;4918466;29;20139;-90
2022/01/04 16:11:14;;;;;;;13.10;5.73;;;8.50;99.90;;;;;;4934664;29;20391;-90
2022/01/04 16:13:40;;;;;;;12.57;6.20;;;8.50;99.90;;;;;;4918319;29;20099;-90
2022/01/04 16:16:19;;;;;;;11.83;6.47;;;8.50;99.90;;;;;;4934301;29;20375;-90
2022/01/04 16:21:36;;;;;;;10.23;5.60;;;8.50;99.90;;;;;;4922204;29;20288;-90
2022/01/04 16:24:07;;;;;;;10.43;5.83;;;8.50;99.90;;;;;;4937965;29;20045;-90
2022/01/04 16:26:35;;;;;;;10.97;6.10;;;8.50;99.90;;;;;;4937227;29;20036;-89
2022/01/04 16:29:10;;;;;;;11.07;6.37;;;8.40;99.90;;;;;;4937427;29;20035;-90
2022/01/04 16:31:37;;;;;;;10.87;5.73;;;8.40;99.90;;;;;;4938196;29;20519;-90
2022/01/04 16:34:04;;;;;;;13.47;7.50;;;8.50;99.90;;;;;;4937602;29;20482;-89
2022/01/04 16:36:34;;;;;;;13.67;7.73;;;8.50;99.90;;;;;;4921605;29;20036;-89
2022/01/04 16:39:05;;;;;;;15.00;7.05;;;8.50;99.90;;;;;;4921869;29;20036;-89
2022/01/04 16:41:31;;;;;;;13.77;6.67;;;8.50;99.90;;;;;;4944476;28;20067;-87
2022/01/04 16:44:01;;;;;;;11.13;6.23;;;8.50;99.90;;;;;;4950011;29;20051;-90
2022/01/04 16:46:27;;;;;;;11.20;6.47;;;8.40;99.90;;;;;;4932928;29;20081;-90
2022/01/04 16:48:52;;;;;;;10.47;5.97;;;8.50;99.90;;;;;;4932341;29;20032;-89
2022/01/04 16:51:18;;;;;;;9.80;5.80;;;8.40;99.90;;;;;;4943351;29;20046;-88
2022/01/04 16:53:44;;;;;;;11.07;5.00;;;8.30;99.90;;;;;;4940040;29;20070;-88
2022/01/04 16:56:10;;;;;;;10.40;5.33;;;8.20;99.90;;;;;;4945895;29;20050;-89
2022/01/04 16:58:36;;;;;;;9.23;3.83;;;8.10;99.90;;;;;;4949709;29;20036;-89
2022/01/04 17:01:02;;;;;;;6.90;3.43;;;8.10;99.90;;;;;;4947487;29;20080;-89
2022/01/04 17:03:27;;;;;;;7.60;3.53;;;8.10;99.90;;;;;;4943759;29;20024;-89
2022/01/04 17:05:53;;;;;;;7.33;3.73;;;8.10;99.90;;;;;;4945205;29;20031;-89
2022/01/04 17:08:19;;;;;;;9.73;4.10;;;8.10;99.90;;;;;;4947224;29;20032;-90
2022/01/04 17:10:56;;;;;;;10.03;4.10;;;8.10;99.90;;;;;;4945721;29;20038;-88
2022/01/04 17:16:06;;;;;;;6.43;3.50;;;8.10;99.90;;;;;;4947392;29;20036;-89
2022/01/04 17:18:32;;;;;;;8.10;3.67;;;8.10;99.90;;;;;;4948879;29;20051;-90
2022/01/04 17:20:58;;;;;;;11.33;4.90;;;8.10;99.90;;;;;;4948055;29;20035;-89
2022/01/04 17:23:24;;;;;;;11.17;4.90;;;8.10;99.90;;;;;;4947710;29;20035;-89
2022/01/04 17:25:50;;;;;;;11.23;5.33;;;8.00;99.90;;;;;;4932985;29;20079;-88
2022/01/04 17:28:16;;;;;;;7.53;3.83;;;8.00;99.90;;;;;;4947772;29;20032;-89
2022/01/04 17:30:43;;;;;;;9.83;4.57;;;8.00;99.90;;;;;;4949997;29;20032;-89
2022/01/04 17:33:09;;;;;;;9.43;4.43;;;8.00;99.90;;;;;;4948753;29;20502;-90
2022/01/04 17:35:34;;;;;;;11.10;4.17;;;8.00;99.90;;;;;;4949882;29;20032;-90
2022/01/04 17:38:00;;;;;;;8.93;4.17;;;7.90;99.90;;;;;;4946685;29;20039;-91
2022/01/04 17:40:29;;;;;;;9.07;4.20;;;8.10;99.90;;;;;;4925256;29;20047;-90
2022/01/04 17:42:56;;;;;;;8.50;4.10;;;8.10;99.90;;;;;;4938087;29;20043;-90
2022/01/04 17:45:23;;;;;;;7.97;3.87;;;8.10;99.90;;;;;;4939287;29;20024;-90
2022/01/04 17:47:49;;;;;;;7.93;4.20;;;8.10;99.90;;;;;;4939456;29;20031;-90
2022/01/04 17:50:19;;;;;;;10.07;5.27;;;8.10;99.90;;;;;;4923637;29;20107;-90
2022/01/04 17:52:46;;;;;;;11.27;5.07;;;8.10;99.90;;;;;;4936725;29;20083;-90
2022/01/04 17:55:12;;;;;;;11.40;5.17;;;8.10;99.90;;;;;;4938954;29;20039;-90
2022/01/04 17:57:38;;;;;;;10.70;4.93;;;8.00;99.90;;;;;;4938683;29;20058;-90
2022/01/04 18:00:08;;;;;;;9.97;5.50;;;8.00;99.90;;;;;;4939213;29;20027;-90
2022/01/04 18:02:36;;;;;;;9.73;4.30;;;8.00;99.90;;;;;;4922185;29;20124;-91
2022/01/04 18:05:03;;;;;;;10.67;4.87;;;7.90;99.90;;;;;;4939791;29;20367;-90
2022/01/04 18:07:28;;;;;;;7.20;4.00;;;7.80;99.90;;;;;;4938303;29;20034;-90
2022/01/04 18:09:54;;;;;;;6.30;3.90;;;7.80;99.90;;;;;;4922726;29;20083;-90
2022/01/04 18:12:20;;;;;;;7.97;3.40;;;7.80;99.90;;;;;;4940732;29;20035;-90
2022/01/04 18:14:46;;;;;;;8.63;4.00;;;7.80;99.90;;;;;;4938524;29;20047;-90
2022/01/04 18:17:12;;;;;;;6.77;4.17;;;7.80;99.90;;;;;;4935668;29;20032;-90
2022/01/04 18:19:38;;;;;;;10.13;5.10;;;7.80;99.90;;;;;;4919105;29;20031;-90
2022/01/04 18:22:04;;;;;;;9.07;4.40;;;7.80;99.90;;;;;;4935477;29;20031;-90
2022/01/04 18:24:30;;;;;;;7.00;3.83;;;7.80;99.90;;;;;;4935675;29;20475;-90
2022/01/04 18:26:56;;;;;;;7.87;3.63;;;7.70;99.90;;;;;;4935667;29;20031;-90
2022/01/04 18:29:21;;;;;;;7.20;3.27;;;7.80;99.90;;;;;;4935745;29;20239;-90
2022/01/04 18:31:47;;;;;;;8.97;3.53;;;7.80;99.90;;;;;;4935369;29;20407;-91
2022/01/04 18:34:14;;;;;;;8.33;3.63;;;7.90;99.90;;;;;;4935232;29;20039;-90
2022/01/04 18:36:40;;;;;;;10.13;3.57;;;7.80;99.90;;;;;;4935046;29;20028;-90